Time;durP1;ratioP1;P1;durP2;ratioP2;P2;SDS_P1;SDS_P2;PMS_P1;PMS_P2;Temp;Humidity;BMP_temperature;BMP_pressure;BME280_temperature;BME280_humidity;BME280_pressure;Samples;Min_cycle;Max_cycle;Signal;HPM_P1;HPM_P2
2023/03/26 08:40:51;;;;;;;20.92;5.63;;;9.50;99.90;;;;;;4080443;23;20062;-84
2023/03/26 08:47:26;;;;;;;29.70;6.63;;;9.50;99.90;;;;;;4877557;29;20037;-85
2023/03/26 09:33:10;;;;;;;16.95;5.20;;;9.70;99.90;;;;;;4914873;29;20046;-90
2023/03/26 09:36:15;;;;;;;20.17;5.20;;;9.90;99.90;;;;;;4915639;29;20032;-90
2023/03/26 09:39:25;;;;;;;18.50;5.43;;;9.10;99.90;;;;;;4916439;29;20480;-90
2023/03/26 09:42:02;;;;;;;21.67;5.82;;;9.70;99.90;;;;;;4916350;29;20039;-89
2023/03/26 09:44:46;;;;;;;20.52;5.78;;;9.70;99.90;;;;;;4905541;29;20038;-89
2023/03/26 09:48:07;;;;;;;;;;;;;;;;;;;;;
2023/03/26 11:03:50;;;;;;;21.20;8.98;;;9.30;99.90;;;;;;5003106;23;20055;-93
2023/03/26 11:10:13;;;;;;;20.42;8.60;;;9.70;99.90;;;;;;4858155;29;20117;-89
2023/03/26 11:13:03;;;;;;;14.40;8.27;;;9.30;99.90;;;;;;4859183;29;20128;-89
2023/03/26 11:16:15;;;;;;;;;;;;;;;;;;;;;
2023/03/26 11:19:07;;;;;;;14.10;7.13;;;8.80;99.90;;;;;;4924544;29;20411;-89
2023/03/26 11:22:01;;;;;;;19.63;6.55;;;9.40;99.90;;;;;;4944131;29;20028;-90
2023/03/26 11:24:59;;;;;;;20.23;7.03;;;8.50;99.90;;;;;;4944498;29;20476;-89
2023/03/26 11:28:18;;;;;;;16.27;5.15;;;9.00;99.90;;;;;;4939540;29;20028;-90
2023/03/26 11:31:17;;;;;;;19.60;5.65;;;9.40;99.90;;;;;;4862457;29;20457;-91
2023/03/26 11:36:55;;;;;;;22.83;5.15;;;9.20;99.90;;;;;;4861247;29;20049;-89
2023/03/26 11:39:44;;;;;;;26.50;5.68;;;10.10;99.90;;;;;;4863140;29;20105;-91
2023/03/26 11:42:14;;;;;;;28.67;6.22;;;8.80;99.90;;;;;;4855796;29;20053;-89
2023/03/26 11:44:50;;;;;;;24.95;6.05;;;9.30;99.90;;;;;;4862727;29;20062;-90
2023/03/26 11:47:45;;;;;;;28.42;5.55;;;9.40;99.90;;;;;;4863521;29;20108;-90
2023/03/26 11:50:43;;;;;;;21.20;4.68;;;9.00;99.90;;;;;;4866929;29;20116;-89
2023/03/26 11:53:37;;;;;;;19.70;4.15;;;9.20;99.90;;;;;;4860507;29;20029;-90
2023/03/26 11:56:39;;;;;;;19.42;4.20;;;9.20;99.90;;;;;;4865009;29;20037;-91
2023/03/26 11:59:18;;;;;;;30.45;4.28;;;9.10;99.90;;;;;;4862507;29;20538;-89
2023/03/26 12:02:21;;;;;;;19.77;4.20;;;9.10;99.90;;;;;;4937296;29;20107;-91
2023/03/26 12:05:32;;;;;;;21.45;4.57;;;9.10;99.90;;;;;;4938131;29;20572;-90
2023/03/26 12:08:12;;;;;;;;;;;;;;;;;;;;;
2023/03/26 12:11:00;;;;;;;23.63;3.80;;;9.90;99.90;;;;;;4891149;29;20054;-91
2023/03/26 12:13:40;;;;;;;13.75;4.18;;;9.00;99.90;;;;;;4938232;29;20034;-90
2023/03/26 12:16:22;;;;;;;;;;;10.00;99.90;;;;;;4939826;29;20039;-90
2023/03/26 12:19:18;;;;;;;24.98;5.13;;;9.70;99.90;;;;;;4937752;29;19910;-90
2023/03/26 12:21:48;;;;;;;12.82;3.28;;;9.50;99.90;;;;;;4923045;29;20115;-91
2023/03/26 12:24:40;;;;;;;24.08;4.72;;;8.80;99.90;;;;;;4938454;29;20028;-90
2023/03/26 12:27:20;;;;;;;19.35;3.85;;;9.40;99.90;;;;;;4960318;23;20047;-90
2023/03/26 12:30:15;;;;;;;24.52;5.43;;;9.70;99.90;;;;;;4938573;29;20035;-89
2023/03/26 12:32:43;;;;;;;22.33;4.55;;;8.90;99.90;;;;;;4934897;29;20043;-90
2023/03/26 12:35:21;;;;;;;18.92;4.90;;;9.80;99.90;;;;;;4938809;29;20036;-90
2023/03/26 12:38:07;;;;;;;24.80;5.53;;;9.00;99.90;;;;;;4938887;29;20027;-90
2023/03/26 12:47:31;;;;;;;20.30;4.38;;;8.70;99.90;;;;;;4944796;23;20080;-90
2023/03/26 12:54:05;;;;;;;13.90;3.03;;;9.10;99.90;;;;;;4944809;23;20055;-90
2023/03/26 13:32:57;;;;;;;;;;;;;;;;;;;;;
2023/03/26 13:45:58;;;;;;;14.57;2.92;;;9.60;99.90;;;;;;4936705;29;20072;-91
2023/03/26 14:02:56;;;;;;;16.67;2.30;;;8.70;99.90;;;;;;4931032;29;20035;-91
2023/03/26 14:09:13;;;;;;;;;;;;;;;;;;;;;
2023/03/26 14:18:37;;;;;;;;;;;;;;;;;;;;;
2023/03/26 14:22:02;;;;;;;13.13;2.10;;;9.50;99.90;;;;;;4868473;29;20066;-90
2023/03/26 15:16:54;;;;;;;6.97;2.22;;;9.70;99.90;;;;;;4936224;29;20568;-87
2023/03/26 15:55:36;;;;;;;12.18;1.88;;;9.20;99.90;;;;;;4992692;28;20588;-88
2023/03/26 15:58:05;;;;;;;10.88;2.17;;;9.80;99.90;;;;;;4993178;28;20037;-89
2023/03/26 16:00:55;;;;;;;12.25;1.98;;;9.10;99.90;;;;;;4992978;28;20019;-89
2023/03/26 16:04:09;;;;;;;14.13;2.50;;;9.10;99.90;;;;;;4992421;28;20037;-89
2023/03/26 16:06:54;;;;;;;8.45;1.90;;;9.10;99.90;;;;;;4897669;29;20043;-89
2023/03/26 16:09:34;;;;;;;10.75;2.03;;;9.00;99.90;;;;;;4900192;28;20025;-90
2023/03/26 16:12:15;;;;;;;17.63;2.77;;;9.00;99.90;;;;;;4976572;28;20377;-90
2023/03/26 16:14:46;;;;;;;10.18;1.77;;;9.00;99.90;;;;;;4975795;28;20039;-89
2023/03/26 16:17:52;;;;;;;17.77;2.38;;;8.90;99.90;;;;;;4985758;28;20062;-89
2023/03/26 16:20:31;;;;;;;20.73;2.90;;;8.90;99.90;;;;;;4966914;28;20039;-87
2023/03/26 16:23:29;;;;;;;13.52;2.45;;;8.90;99.90;;;;;;4983537;28;20106;-89
2023/03/26 16:26:04;;;;;;;15.98;2.97;;;8.90;99.90;;;;;;4986248;28;20023;-88
2023/03/26 16:29:03;;;;;;;10.68;2.20;;;9.80;99.90;;;;;;4987429;28;20537;-89
2023/03/26 16:32:17;;;;;;;8.57;1.90;;;8.90;99.90;;;;;;4976763;28;20100;-88
2023/03/26 16:35:01;;;;;;;11.52;1.52;;;8.80;99.90;;;;;;4976832;28;20057;-88
2023/03/26 16:37:48;;;;;;;9.65;2.08;;;8.80;99.90;;;;;;4975804;28;20042;-89
2023/03/26 16:40:19;;;;;;;16.27;3.35;;;8.80;99.90;;;;;;4974906;28;20088;-88
2023/03/26 16:43:25;;;;;;;9.25;2.05;;;9.10;99.90;;;;;;4995755;28;20088;-89
2023/03/26 16:46:55;;;;;;;10.07;2.65;;;8.80;99.90;;;;;;4979668;28;20040;-88
2023/03/26 16:50:04;;;;;;;17.73;1.90;;;8.80;99.90;;;;;;4995896;28;20548;-90
2023/03/26 16:52:55;;;;;;;12.60;1.52;;;8.80;99.90;;;;;;4825889;23;4549642;-89
2023/03/26 16:58:57;;;;;;;22.02;3.05;;;8.70;99.90;;;;;;4943217;29;20441;-90
2023/03/26 17:01:56;;;;;;;13.73;1.85;;;8.70;99.90;;;;;;5023205;23;20150;-91
2023/03/26 17:04:29;;;;;;;16.83;2.38;;;8.70;99.90;;;;;;4933621;29;20107;-89
2023/03/26 17:07:18;;;;;;;4.72;1.55;;;8.80;99.90;;;;;;4937740;29;20035;-90
2023/03/26 17:10:34;;;;;;;5.72;1.63;;;8.60;99.90;;;;;;4863771;29;20034;-90
2023/03/26 17:13:10;;;;;;;10.70;1.50;;;8.20;99.90;;;;;;4857370;29;20053;-89
2023/03/26 17:16:16;;;;;;;10.82;2.58;;;8.60;99.90;;;;;;4863015;29;20029;-88
2023/03/26 17:19:23;;;;;;;8.50;1.50;;;8.60;99.90;;;;;;4860688;29;20064;-87
2023/03/26 17:22:16;;;;;;;15.93;2.92;;;9.50;99.90;;;;;;4865987;29;20522;-86
2023/03/26 17:25:03;;;;;;;6.88;1.58;;;8.50;99.90;;;;;;4946348;29;20031;-87
2023/03/26 17:27:33;;;;;;;8.27;2.15;;;8.50;99.90;;;;;;4962701;23;20487;-87
2023/03/26 17:30:23;;;;;;;4.40;1.40;;;8.50;99.90;;;;;;4955546;28;20034;-89
2023/03/26 17:33:01;;;;;;;10.38;2.00;;;8.40;99.90;;;;;;4912056;28;20055;-90
2023/03/26 17:35:57;;;;;;;6.82;2.03;;;9.30;99.90;;;;;;4968467;28;20033;-91
2023/03/26 17:38:40;;;;;;;9.20;1.92;;;7.90;99.90;;;;;;4946737;23;20055;-89
2023/03/26 17:41:49;;;;;;;6.03;1.40;;;9.60;99.90;;;;;;4951913;28;20032;-90
2023/03/26 17:50:33;;;;;;;9.90;1.65;;;8.30;99.90;;;;;;4942895;29;20041;-91
2023/03/26 17:53:19;;;;;;;7.57;1.45;;;7.70;99.90;;;;;;5050766;23;20068;-91
2023/03/26 17:56:02;;;;;;;13.80;1.27;;;9.40;99.90;;;;;;5006729;28;20034;-89
2023/03/26 17:58:53;;;;;;;;;;;;;;;;;;;;;
2023/03/26 18:01:55;;;;;;;7.18;1.95;;;8.80;99.90;;;;;;4979728;28;20031;-90
2023/03/26 18:08:14;;;;;;;11.35;2.75;;;8.70;99.90;;;;;;4895012;28;20043;-90
2023/03/26 18:10:59;;;;;;;8.20;1.85;;;8.00;99.90;;;;;;4985162;28;20396;-90
2023/03/26 18:14:09;;;;;;;5.80;1.63;;;8.60;99.90;;;;;;5026741;23;20101;-90
2023/03/26 18:16:57;;;;;;;8.73;2.03;;;8.80;99.90;;;;;;4956526;28;20039;-90
2023/03/26 18:20:08;;;;;;;11.75;1.48;;;9.20;99.90;;;;;;4967710;28;20114;-90
2023/03/26 18:22:43;;;;;;;10.48;1.90;;;7.90;99.90;;;;;;4958957;28;20030;-90
2023/03/26 18:25:44;;;;;;;12.10;3.10;;;7.90;99.90;;;;;;4962351;28;20033;-90
2023/03/26 18:28:49;;;;;;;10.48;1.50;;;7.90;99.90;;;;;;4966629;28;20019;-89
2023/03/26 18:31:23;;;;;;;4.82;1.13;;;7.90;99.90;;;;;;4969063;28;20112;-90
2023/03/26 18:34:05;;;;;;;8.00;1.67;;;7.10;99.90;;;;;;4974109;28;20023;-89
2023/03/26 18:37:21;;;;;;;12.13;2.28;;;8.40;99.90;;;;;;4950257;28;20070;-91
2023/03/26 18:42:46;;;;;;;10.35;1.73;;;7.90;99.90;;;;;;4968840;23;20054;-90
2023/03/26 18:45:35;;;;;;;13.60;1.75;;;8.30;99.90;;;;;;4957884;28;20046;-90
2023/03/26 18:48:57;;;;;;;;;;;;;;;;;;;;;
2023/03/26 18:51:28;;;;;;;9.93;1.70;;;7.80;99.90;;;;;;4915948;29;20032;-89
2023/03/26 18:57:51;;;;;;;6.97;1.83;;;7.60;99.90;;;;;;4888952;29;20044;-91
2023/03/26 19:01:02;;;;;;;15.55;2.47;;;7.60;99.90;;;;;;4959797;28;20478;-89
2023/03/26 19:07:52;;;;;;;8.70;2.22;;;7.00;99.90;;;;;;4923705;29;20035;-91
2023/03/26 19:10:20;;;;;;;7.75;1.50;;;7.10;99.90;;;;;;4951361;28;20109;-89
2023/03/26 19:16:35;;;;;;;16.17;2.28;;;7.40;99.90;;;;;;4862426;29;20109;-90
2023/03/26 19:19:25;;;;;;;10.23;2.38;;;7.10;99.90;;;;;;4831742;29;20034;-89
2023/03/26 19:23:00;;;;;;;18.23;2.30;;;7.70;99.90;;;;;;4877038;29;20127;-91
2023/03/26 19:26:09;;;;;;;14.75;2.08;;;7.30;99.90;;;;;;4821981;29;20307;-90
2023/03/26 19:29:33;;;;;;;;;;;;;;;;;;;;;
2023/03/26 19:32:27;;;;;;;14.68;1.63;;;7.40;99.90;;;;;;4801097;29;20037;-90
2023/03/26 19:34:59;;;;;;;9.15;1.60;;;8.10;99.90;;;;;;4845744;29;20512;-89
2023/03/26 19:40:21;;;;;;;15.82;2.88;;;7.40;99.90;;;;;;5653400;23;20056;-89
2023/03/26 19:42:59;;;;;;;11.70;2.00;;;6.80;99.90;;;;;;4932729;29;20044;-90
2023/03/26 19:45:31;;;;;;;6.18;1.33;;;7.30;99.90;;;;;;4920258;29;20020;-89
2023/03/26 19:47:59;;;;;;;12.95;1.52;;;7.40;99.90;;;;;;4914654;29;20046;-89
2023/03/26 19:50:54;;;;;;;9.93;1.85;;;7.10;99.90;;;;;;4926030;29;20079;-89
2023/03/26 19:56:48;;;;;;;7.03;2.08;;;7.20;99.90;;;;;;4841672;29;20132;-91
2023/03/26 19:59:14;;;;;;;7.22;1.50;;;8.00;99.90;;;;;;4854972;29;20034;-90
2023/03/26 20:01:51;;;;;;;11.25;1.85;;;7.70;99.90;;;;;;4884781;29;20096;-90
2023/03/26 20:04:19;;;;;;;11.60;1.42;;;7.00;99.90;;;;;;4927995;29;20032;-89
2023/03/26 20:06:54;;;;;;;11.43;2.03;;;6.70;99.90;;;;;;4926068;29;20028;-89
2023/03/26 20:09:20;;;;;;;6.53;1.42;;;7.10;99.90;;;;;;4938286;29;20107;-90
2023/03/26 20:23:07;;;;;;;;;;;;;;;;;;;;;
2023/03/26 20:26:50;;;;;;;6.50;1.60;;;6.90;99.90;;;;;;4837523;29;20526;-90
2023/03/26 20:29:16;;;;;;;7.78;1.52;;;6.90;99.90;;;;;;4893438;29;20032;-89
2023/03/26 20:32:51;;;;;;;;;;;;;;;;;;;;;
2023/03/26 20:42:19;;;;;;;8.93;1.60;;;6.70;99.90;;;;;;4951286;23;20059;-91
2023/03/26 20:50:52;;;;;;;13.95;1.70;;;6.60;99.90;;;;;;5008459;23;20056;-89
2023/03/26 20:57:32;;;;;;;8.70;2.08;;;6.40;99.90;;;;;;4901058;29;20078;-91
2023/03/26 21:31:49;;;;;;;9.82;2.03;;;6.40;99.90;;;;;;5022214;23;20055;-89
2023/03/26 21:34:15;;;;;;;10.63;2.67;;;6.40;99.90;;;;;;4943658;29;20035;-88
2023/03/26 21:36:46;;;;;;;11.85;1.95;;;6.40;99.90;;;;;;4932661;29;20039;-87
2023/03/26 21:39:12;;;;;;;;;;;6.40;99.90;;;;;;4935062;29;20034;-87
2023/03/26 21:41:46;;;;;;;6.07;1.50;;;6.40;99.90;;;;;;4933471;29;19907;-89
2023/03/26 21:44:13;;;;;;;16.05;2.50;;;6.40;99.90;;;;;;4936314;29;20036;-89
2023/03/26 21:46:44;;;;;;;10.88;3.33;;;6.40;99.90;;;;;;4936332;29;20028;-88
2023/03/26 21:49:11;;;;;;;7.28;1.92;;;6.40;99.90;;;;;;4936519;29;20087;-89
2023/03/26 21:51:40;;;;;;;6.38;1.55;;;6.40;99.90;;;;;;4951442;29;20012;-87
2023/03/26 21:54:31;;;;;;;10.05;1.60;;;6.40;99.90;;;;;;4938867;29;20024;-88
2023/03/26 21:57:27;;;;;;;13.57;2.17;;;7.20;99.90;;;;;;4936398;29;20043;-88
2023/03/26 22:00:00;;;;;;;10.48;2.03;;;6.40;99.90;;;;;;4936497;29;20034;-88
2023/03/26 22:02:48;;;;;;;11.50;2.25;;;6.70;99.90;;;;;;4935999;29;20035;-88
2023/03/26 22:05:28;;;;;;;13.77;2.17;;;6.50;99.90;;;;;;4936419;29;20028;-88
2023/03/26 22:08:02;;;;;;;13.02;1.90;;;6.40;99.90;;;;;;4935353;29;20054;-89
2023/03/26 22:10:29;;;;;;;15.77;2.08;;;6.40;99.90;;;;;;4936548;29;20037;-87
2023/03/26 22:12:56;;;;;;;10.93;2.88;;;7.30;99.90;;;;;;4936248;29;20028;-87
2023/03/26 22:15:22;;;;;;;8.43;2.17;;;7.00;99.90;;;;;;4935471;29;20035;-87
2023/03/26 22:17:52;;;;;;;10.57;2.15;;;7.30;99.90;;;;;;4936102;29;20043;-87
2023/03/26 22:20:22;;;;;;;10.03;2.37;;;6.40;99.90;;;;;;4939766;29;20024;-88
2023/03/26 22:22:48;;;;;;;13.73;2.75;;;7.20;99.90;;;;;;4954689;29;20035;-88
2023/03/26 22:25:15;;;;;;;13.93;2.17;;;7.30;99.90;;;;;;4955325;29;20024;-88
2023/03/26 22:27:41;;;;;;;10.13;2.00;;;6.00;99.90;;;;;;4955059;29;20482;-89
2023/03/26 22:30:10;;;;;;;11.82;2.25;;;7.50;99.90;;;;;;4954538;29;20034;-88
2023/03/26 22:32:49;;;;;;;14.68;2.17;;;6.30;99.90;;;;;;4954693;28;20507;-88
2023/03/26 22:35:18;;;;;;;11.45;1.67;;;7.10;99.90;;;;;;4955261;29;20053;-87
2023/03/26 22:37:44;;;;;;;15.90;1.95;;;5.80;99.90;;;;;;4954472;29;20038;-88
2023/03/26 22:40:12;;;;;;;7.53;1.63;;;6.50;99.90;;;;;;4955219;29;20023;-89
2023/03/26 22:42:38;;;;;;;6.20;2.30;;;6.40;99.90;;;;;;4954677;29;20035;-88
2023/03/26 22:45:04;;;;;;;10.30;2.92;;;7.10;99.90;;;;;;4954139;29;20034;-89
2023/03/26 22:47:32;;;;;;;6.53;1.52;;;6.30;99.90;;;;;;4954802;29;20050;-88
2023/03/26 22:49:58;;;;;;;8.82;1.40;;;6.30;99.90;;;;;;4955010;29;20027;-89
2023/03/26 22:52:24;;;;;;;9.15;1.92;;;6.80;99.90;;;;;;4954472;29;20027;-89
2023/03/26 22:54:49;;;;;;;15.88;2.67;;;6.30;99.90;;;;;;4936350;29;20159;-88
2023/03/26 22:57:15;;;;;;;14.60;2.58;;;6.30;99.90;;;;;;4935007;29;20412;-89
2023/03/26 22:59:41;;;;;;;11.50;1.80;;;6.30;99.90;;;;;;4935130;29;20498;-88
2023/03/26 23:02:17;;;;;;;14.80;2.30;;;6.30;99.90;;;;;;4935478;29;20035;-88
2023/03/26 23:04:43;;;;;;;9.02;2.08;;;6.80;99.90;;;;;;4931053;29;20032;-89
2023/03/26 23:07:11;;;;;;;5.00;1.95;;;6.60;99.90;;;;;;4936036;29;20031;-89
2023/03/26 23:09:37;;;;;;;8.13;1.80;;;6.30;99.90;;;;;;4935399;29;20078;-88
2023/03/26 23:12:03;;;;;;;11.88;1.70;;;6.50;99.90;;;;;;4918019;29;20130;-90
2023/03/26 23:14:35;;;;;;;9.93;1.63;;;6.30;99.90;;;;;;4944762;29;20063;-89
2023/03/26 23:17:00;;;;;;;5.43;1.27;;;7.00;99.90;;;;;;4947692;29;20047;-89
2023/03/26 23:19:28;;;;;;;10.98;2.00;;;6.40;99.90;;;;;;4944639;29;20026;-88
2023/03/26 23:21:54;;;;;;;11.63;1.83;;;6.50;99.90;;;;;;4953990;29;20036;-89
2023/03/26 23:24:19;;;;;;;15.82;2.30;;;7.00;99.90;;;;;;4940043;29;20023;-88
2023/03/26 23:26:45;;;;;;;6.70;1.60;;;6.60;99.90;;;;;;4938356;29;20399;-89
2023/03/26 23:29:12;;;;;;;8.55;2.63;;;7.00;99.90;;;;;;4939226;29;20135;-89
2023/03/26 23:31:40;;;;;;;16.23;2.40;;;7.00;99.90;;;;;;4946277;28;20047;-88
2023/03/26 23:34:15;;;;;;;10.70;1.90;;;7.20;99.90;;;;;;4957860;28;20376;-88
2023/03/26 23:36:43;;;;;;;8.77;1.85;;;7.20;99.90;;;;;;4958016;29;20063;-88
2023/03/26 23:39:09;;;;;;;5.75;1.58;;;7.10;99.90;;;;;;4958217;28;20020;-89
2023/03/26 23:41:41;;;;;;;9.38;2.20;;;7.20;99.90;;;;;;4957296;28;20110;-88
2023/03/26 23:44:12;;;;;;;11.43;1.85;;;6.30;99.90;;;;;;4958255;28;20064;-89
2023/03/26 23:46:40;;;;;;;5.97;1.58;;;7.40;99.90;;;;;;4950005;29;20035;-89
2023/03/26 23:49:06;;;;;;;8.60;1.33;;;7.20;99.90;;;;;;4958265;28;20027;-88
2023/03/26 23:51:32;;;;;;;8.85;1.73;;;8.10;99.90;;;;;;4958261;28;20038;-88
2023/03/26 23:53:59;;;;;;;9.05;2.35;;;6.80;99.90;;;;;;4963941;23;20561;-89
2023/03/26 23:56:26;;;;;;;10.10;1.75;;;6.70;99.90;;;;;;4957814;28;20505;-89
2023/03/26 23:58:52;;;;;;;7.90;1.33;;;6.40;99.90;;;;;;4957893;28;20516;-88
